createdAt,value
2019-05-14T00:01:38.527Z,1.97
2019-05-14T00:04:05.445Z,1.87
2019-05-14T00:06:32.470Z,1.87
2019-05-14T00:09:01.400Z,3.03
2019-05-14T00:11:28.230Z,2.73
2019-05-14T00:13:55.242Z,1.70
2019-05-14T00:16:24.228Z,4.03
2019-05-14T00:18:51.264Z,1.60
2019-05-14T00:21:18.417Z,2.33
2019-05-14T00:23:45.217Z,2.57
2019-05-14T00:26:12.286Z,1.57
2019-05-14T00:28:39.200Z,2.20
2019-05-14T00:31:05.990Z,1.70
2019-05-14T00:33:33.030Z,2.70
2019-05-14T00:36:01.861Z,1.97
2019-05-14T00:38:28.636Z,1.40
2019-05-14T00:40:55.617Z,2.57
2019-05-14T00:43:22.423Z,2.37
2019-05-14T00:45:51.084Z,1.97
2019-05-14T00:48:18.057Z,1.67
2019-05-14T00:50:44.991Z,2.13
2019-05-14T00:53:11.926Z,2.73
2019-05-14T00:55:38.770Z,3.33
2019-05-14T00:58:05.558Z,2.50
2019-05-14T01:00:32.578Z,3.43
2019-05-14T01:03:01.781Z,2.63
2019-05-14T01:05:28.126Z,2.63
2019-05-14T01:07:55.058Z,3.27
2019-05-14T01:10:22.264Z,2.57
2019-05-14T01:12:51.868Z,2.70
2019-05-14T01:15:18.322Z,2.90
2019-05-14T01:17:45.158Z,2.43
2019-05-14T01:20:12.432Z,4.00
2019-05-14T01:22:39.393Z,3.77
2019-05-14T01:25:06.555Z,4.43
2019-05-14T01:27:33.390Z,3.67
2019-05-14T01:30:02.114Z,4.17
2019-05-14T01:32:31.410Z,3.77
2019-05-14T01:34:57.861Z,3.10
2019-05-14T01:37:24.649Z,2.50
2019-05-14T01:39:52.190Z,3.07
2019-05-14T01:42:21.453Z,2.67
2019-05-14T01:44:47.887Z,3.00
2019-05-14T01:47:14.810Z,2.17
2019-05-14T01:49:42.731Z,4.60
2019-05-14T01:52:11.262Z,5.63
2019-05-14T01:54:38.309Z,4.03
2019-05-14T01:57:05.249Z,3.00
2019-05-14T01:59:32.418Z,4.20
2019-05-14T02:02:01.743Z,4.77
2019-05-14T02:04:28.463Z,4.50
2019-05-14T02:06:55.387Z,9.37
2019-05-14T02:09:22.313Z,5.53
2019-05-14T02:11:49.147Z,7.60
2019-05-14T02:14:16.077Z,8.10
2019-05-14T02:16:42.990Z,4.63
2019-05-14T02:19:11.589Z,4.57
2019-05-14T02:21:38.646Z,4.17
2019-05-14T02:24:05.551Z,5.33
2019-05-14T02:26:32.518Z,4.73
2019-05-14T02:29:01.792Z,6.33
2019-05-14T02:31:29.224Z,5.40
2019-05-14T02:33:59.043Z,4.70
2019-05-14T02:36:25.101Z,5.30
2019-05-14T02:38:51.974Z,5.67
2019-05-14T02:41:19.812Z,7.00
2019-05-14T02:43:49.940Z,5.20
2019-05-14T02:46:17.434Z,5.30
2019-05-14T02:48:44.624Z,4.10
2019-05-14T02:51:11.642Z,4.53
2019-05-14T02:53:39.197Z,4.30
2019-05-14T02:56:10.064Z,5.00
2019-05-14T02:58:35.199Z,5.63
2019-05-14T03:01:01.994Z,5.47
2019-05-14T03:03:29.855Z,5.77
2019-05-14T03:06:00.261Z,6.20
2019-05-14T03:08:26.311Z,8.00
2019-05-14T03:10:53.234Z,6.87
2019-05-14T03:13:20.449Z,7.37
2019-05-14T03:15:49.806Z,8.60
2019-05-14T03:18:19.564Z,10.33
2019-05-14T03:20:45.497Z,12.97
2019-05-14T03:23:18.063Z,10.17
2019-05-14T03:25:41.430Z,9.53
2019-05-14T03:28:09.289Z,8.30
2019-05-14T03:30:41.750Z,7.37
2019-05-14T03:33:05.719Z,6.60
2019-05-14T03:35:42.437Z,6.47
2019-05-14T03:38:01.799Z,6.00
2019-05-14T03:40:29.369Z,7.80
2019-05-14T03:42:59.601Z,5.47
2019-05-14T03:45:25.472Z,5.67
2019-05-14T03:47:52.497Z,5.00
2019-05-14T03:50:19.506Z,4.53
2019-05-14T03:52:49.567Z,5.57
2019-05-14T03:55:15.351Z,5.00
2019-05-14T03:58:01.885Z,6.27
2019-05-14T04:01:00.359Z,6.20
2019-05-14T04:03:29.409Z,8.13
2019-05-14T04:05:59.345Z,5.40
2019-05-14T04:08:29.335Z,7.37
2019-05-14T04:10:58.862Z,4.27
2019-05-14T04:13:25.422Z,4.30
2019-05-14T04:15:53.331Z,4.70
2019-05-14T04:18:22.642Z,4.57
2019-05-14T04:20:52.221Z,5.13
2019-05-14T04:23:21.920Z,4.03
2019-05-14T04:25:51.711Z,4.50
2019-05-14T04:28:20.060Z,4.13
2019-05-14T04:30:51.121Z,4.30
2019-05-14T04:33:22.348Z,6.83
2019-05-14T04:35:49.400Z,3.97
2019-05-14T04:38:16.476Z,3.50
2019-05-14T04:40:43.515Z,3.50
2019-05-14T04:43:10.441Z,3.30
2019-05-14T04:45:39.560Z,4.50
2019-05-14T04:48:24.073Z,4.13
2019-05-14T04:50:35.328Z,5.77
2019-05-14T04:53:02.342Z,4.13
2019-05-14T04:55:29.793Z,3.73
2019-05-14T04:57:59.050Z,6.00
2019-05-14T05:00:25.950Z,4.60
2019-05-14T05:02:52.802Z,2.90
2019-05-14T05:05:19.862Z,4.33
2019-05-14T05:07:49.187Z,3.90
2019-05-14T05:10:19.038Z,4.03
2019-05-14T05:12:44.698Z,3.90
2019-05-14T05:15:11.734Z,3.23
2019-05-14T05:17:47.007Z,3.17
2019-05-14T05:20:09.838Z,3.07
2019-05-14T05:22:36.411Z,4.93
2019-05-14T05:25:03.597Z,2.73
2019-05-14T05:27:30.395Z,4.80
2019-05-14T05:29:58.979Z,3.67
2019-05-14T05:32:28.396Z,2.93
2019-05-14T05:34:54.895Z,3.03
2019-05-14T05:37:21.742Z,3.23
2019-05-14T05:39:49.194Z,3.57
2019-05-14T05:42:18.599Z,2.70
2019-05-14T05:44:45.086Z,3.50
2019-05-14T05:47:11.987Z,2.80
2019-05-14T05:49:38.978Z,3.73
2019-05-14T05:52:08.336Z,2.50
2019-05-14T05:54:34.684Z,3.17
2019-05-14T05:57:03.257Z,3.80
2019-05-14T05:59:30.168Z,2.27
2019-05-14T06:01:58.713Z,1.40
2019-05-14T06:04:25.879Z,1.93
2019-05-14T06:06:52.805Z,2.97
2019-05-14T06:09:19.713Z,2.80
2019-05-14T06:11:48.742Z,3.87
2019-05-14T06:14:15.365Z,2.43
2019-05-14T06:16:42.174Z,2.43
2019-05-14T06:19:09.202Z,2.83
2019-05-14T06:21:35.989Z,1.87
2019-05-14T06:24:03.158Z,2.40
2019-05-14T06:26:30.249Z,2.10
2019-05-14T06:28:59.746Z,2.33
2019-05-14T06:31:25.938Z,2.13
2019-05-14T06:33:52.900Z,1.67
2019-05-14T06:36:19.948Z,3.27
2019-05-14T06:38:49.296Z,2.43
2019-05-14T06:41:15.617Z,2.20
2019-05-14T06:43:42.414Z,1.70
2019-05-14T06:46:09.274Z,1.77
2019-05-14T06:48:39.303Z,2.27
2019-05-14T06:51:05.154Z,2.73
2019-05-14T06:53:32.122Z,1.83
2019-05-14T06:55:59.019Z,0.83
2019-05-14T06:58:25.818Z,1.03
2019-05-14T07:00:52.909Z,1.60
2019-05-14T07:03:19.818Z,1.20
2019-05-14T07:05:49.087Z,1.50
2019-05-14T07:08:15.456Z,1.17
2019-05-14T07:10:42.403Z,2.87
2019-05-14T07:13:09.363Z,1.33
2019-05-14T07:15:38.555Z,1.63
2019-05-14T07:18:05.202Z,2.63
2019-05-14T07:20:32.142Z,1.10
2019-05-14T07:22:58.986Z,2.20
2019-05-14T07:25:25.802Z,1.37
2019-05-14T07:27:52.714Z,2.03
2019-05-14T07:30:19.738Z,0.70
2019-05-14T07:32:48.481Z,1.70
2019-05-14T07:35:18.158Z,2.50
2019-05-14T07:37:44.507Z,1.37
2019-05-14T07:40:11.514Z,0.80
2019-05-14T07:42:38.648Z,1.27
2019-05-14T07:45:06.573Z,1.87
2019-05-14T07:47:33.382Z,1.30
2019-05-14T07:50:00.182Z,1.00
2019-05-14T07:52:28.427Z,1.10
2019-05-14T07:54:55.631Z,1.07
2019-05-14T07:57:22.538Z,1.53
2019-05-14T07:59:49.347Z,1.20
2019-05-14T08:02:16.250Z,2.03
2019-05-14T08:04:43.061Z,1.50
2019-05-14T08:07:10.053Z,0.77
2019-05-14T08:09:38.749Z,1.63
2019-05-14T08:12:05.587Z,1.37
2019-05-14T08:14:41.978Z,3.83
2019-05-14T08:17:01.160Z,1.67
2019-05-14T08:19:31.446Z,0.87
2019-05-14T08:21:58.683Z,1.43
2019-05-14T08:24:27.191Z,0.83
2019-05-14T08:26:54.289Z,1.60
2019-05-14T08:29:21.207Z,0.70
2019-05-14T08:31:48.784Z,0.97
2019-05-14T08:34:15.899Z,1.90
2019-05-14T08:36:42.698Z,0.60
2019-05-14T08:39:09.686Z,0.57
2019-05-14T08:41:38.338Z,4.40
2019-05-14T08:44:08.313Z,1.90
2019-05-14T08:46:34.687Z,1.00
2019-05-14T08:49:01.603Z,2.73
2019-05-14T08:51:29.615Z,0.97
2019-05-14T08:53:59.189Z,2.30
2019-05-14T08:56:28.058Z,1.13
2019-05-14T08:58:54.577Z,1.90
2019-05-14T09:01:21.514Z,0.50
2019-05-14T09:03:49.274Z,2.07
2019-05-14T09:06:18.529Z,1.73
2019-05-14T09:08:45.503Z,1.47
2019-05-14T09:11:12.415Z,1.07
2019-05-14T09:13:39.223Z,1.07
2019-05-14T09:16:09.315Z,0.83
2019-05-14T09:18:38.249Z,1.50
2019-05-14T09:21:04.495Z,1.57
2019-05-14T09:23:31.539Z,2.10
2019-05-14T09:25:58.970Z,1.83
2019-05-14T09:28:28.496Z,2.00
2019-05-14T09:30:55.750Z,1.07
2019-05-14T09:33:24.317Z,0.77
2019-05-14T09:36:08.073Z,1.63
2019-05-14T09:38:20.246Z,1.30
2019-05-14T09:40:48.958Z,2.33
2019-05-14T09:43:18.032Z,1.40
2019-05-14T09:45:44.856Z,3.70
2019-05-14T09:48:11.882Z,1.43
2019-05-14T09:50:39.050Z,1.03
2019-05-14T09:53:09.110Z,2.00
2019-05-14T09:55:34.881Z,2.23
2019-05-14T09:58:01.806Z,1.10
2019-05-14T10:00:28.970Z,1.13
2019-05-14T10:02:55.986Z,1.77
2019-05-14T10:05:22.991Z,1.60
2019-05-14T10:07:49.925Z,1.10
2019-05-14T10:10:19.665Z,0.90
2019-05-14T10:12:56.042Z,1.63
2019-05-14T10:15:14.716Z,0.77
2019-05-14T10:17:41.730Z,1.30
2019-05-14T10:20:09.945Z,0.60
2019-05-14T10:22:39.474Z,1.43
2019-05-14T10:25:08.898Z,0.53
2019-05-14T10:27:35.279Z,0.70
2019-05-14T10:30:03.513Z,2.10
2019-05-14T10:32:30.459Z,0.53
2019-05-14T10:34:58.962Z,1.90
2019-05-14T10:37:28.835Z,0.67
2019-05-14T10:39:55.190Z,1.27
2019-05-14T10:42:22.115Z,0.67
2019-05-14T10:44:49.105Z,1.00
2019-05-14T10:47:18.546Z,1.37
2019-05-14T10:49:44.750Z,0.60
2019-05-14T10:52:11.592Z,0.73
2019-05-14T10:54:43.224Z,0.70
2019-05-14T10:57:09.571Z,0.63
2019-05-14T10:59:36.143Z,1.07
2019-05-14T11:02:03.175Z,0.83
2019-05-14T11:04:30.163Z,0.50
2019-05-14T11:06:57.018Z,0.87
2019-05-14T11:09:23.837Z,1.17
2019-05-14T11:11:50.699Z,1.00
2019-05-14T11:14:19.202Z,0.60
2019-05-14T11:16:48.416Z,0.80
2019-05-14T11:19:15.274Z,1.73
2019-05-14T11:21:42.234Z,0.60
2019-05-14T11:24:09.627Z,2.07
2019-05-14T11:26:38.938Z,0.63
2019-05-14T11:29:05.428Z,0.50
2019-05-14T11:31:34.333Z,1.03
2019-05-14T11:34:01.226Z,1.03
2019-05-14T11:36:29.214Z,0.50
2019-05-14T11:39:00.595Z,0.80
2019-05-14T11:41:25.307Z,0.50
2019-05-14T11:43:52.291Z,2.43
2019-05-14T11:46:33.551Z,0.93
2019-05-14T11:48:48.943Z,0.63
2019-05-14T11:51:18.922Z,1.00
2019-05-14T11:53:45.257Z,2.00
2019-05-14T11:56:12.071Z,0.73
2019-05-14T11:58:38.930Z,0.67
2019-05-14T12:01:06.043Z,0.90
2019-05-14T12:03:32.905Z,0.87
2019-05-14T12:05:59.815Z,0.87
2019-05-14T12:08:28.749Z,0.57
2019-05-14T12:10:55.672Z,0.67
2019-05-14T12:13:22.516Z,1.37
2019-05-14T12:15:49.563Z,0.50
2019-05-14T12:18:18.559Z,3.10
2019-05-14T12:20:45.319Z,1.20
2019-05-14T12:23:12.225Z,1.27
2019-05-14T12:25:39.552Z,0.83
2019-05-14T12:28:13.132Z,0.80
2019-05-14T12:30:35.210Z,0.77
2019-05-14T12:33:02.144Z,0.87
2019-05-14T12:35:29.372Z,1.20
2019-05-14T12:37:58.551Z,2.20
2019-05-14T12:40:25.403Z,1.20
2019-05-14T12:42:52.364Z,0.80
2019-05-14T12:45:19.467Z,3.00
2019-05-14T12:47:49.814Z,1.47
2019-05-14T12:50:15.627Z,4.00
2019-05-14T12:52:42.539Z,1.50
2019-05-14T12:55:09.651Z,3.13
2019-05-14T12:57:39.591Z,1.17
2019-05-14T13:00:06.159Z,2.10
2019-05-14T13:02:32.970Z,1.30
2019-05-14T13:05:00.207Z,0.87
2019-05-14T13:07:27.233Z,1.73
2019-05-14T13:09:54.129Z,2.00
2019-05-14T13:12:21.030Z,1.87
2019-05-14T13:14:48.954Z,1.70
2019-05-14T13:17:18.537Z,0.80
2019-05-14T13:19:44.903Z,1.43
2019-05-14T13:22:15.106Z,0.67
2019-05-14T13:24:40.869Z,2.20
2019-05-14T13:27:09.411Z,1.17
2019-05-14T13:29:36.495Z,0.90
2019-05-14T13:32:03.562Z,0.67
2019-05-14T13:34:30.375Z,1.60
2019-05-14T13:36:59.732Z,1.10
2019-05-14T13:39:28.314Z,1.40
2019-05-14T13:41:55.458Z,0.60
2019-05-14T13:44:24.996Z,1.50
2019-05-14T13:46:51.157Z,1.87
2019-05-14T13:49:19.071Z,1.87
2019-05-14T13:51:48.831Z,1.13
2019-05-14T13:54:14.901Z,1.83
2019-05-14T13:56:41.727Z,0.90
2019-05-14T13:59:09.519Z,0.57
2019-05-14T14:01:36.561Z,1.73
2019-05-14T14:04:11.361Z,0.70
2019-05-14T14:06:32.564Z,3.40
2019-05-14T14:08:59.570Z,2.03
2019-05-14T14:11:28.661Z,1.20
2019-05-14T14:13:55.275Z,1.33
2019-05-14T14:16:22.146Z,1.13
2019-05-14T14:18:50.147Z,0.90
2019-05-14T14:21:19.683Z,0.80
2019-05-14T14:23:49.099Z,1.30
2019-05-14T14:26:14.902Z,1.67
2019-05-14T14:28:41.740Z,1.40
2019-05-14T14:31:10.976Z,2.40
2019-05-14T14:33:39.112Z,1.03
2019-05-14T14:36:06.264Z,2.27
2019-05-14T14:38:33.167Z,1.50
2019-05-14T14:40:59.954Z,0.73
2019-05-14T14:43:29.204Z,2.20
2019-05-14T14:45:55.694Z,0.73
2019-05-14T14:48:22.688Z,0.77
2019-05-14T14:50:50.340Z,0.43
2019-05-14T14:53:19.852Z,2.60
2019-05-14T14:55:49.502Z,1.93
2019-05-14T14:58:14.719Z,0.60
2019-05-14T15:00:41.767Z,0.70
2019-05-14T15:03:10.088Z,0.60
2019-05-14T15:05:38.974Z,0.80
2019-05-14T15:08:10.023Z,1.83
2019-05-14T15:10:34.874Z,0.60
2019-05-14T15:13:01.663Z,2.00
2019-05-14T15:15:31.920Z,0.80
2019-05-14T15:17:57.526Z,2.60
2019-05-14T15:20:24.539Z,1.87
2019-05-14T15:22:51.354Z,3.77
2019-05-14T15:25:18.552Z,1.63
2019-05-14T15:27:45.599Z,1.40
2019-05-14T15:30:13.237Z,1.20
2019-05-14T15:32:40.243Z,1.07
2019-05-14T15:35:10.643Z,2.20
2019-05-14T15:37:42.251Z,1.57
2019-05-14T15:40:05.803Z,1.70
2019-05-14T15:42:32.798Z,1.50
2019-05-14T15:45:00.111Z,0.90
2019-05-14T15:47:29.497Z,1.27
2019-05-14T15:49:55.938Z,0.77
2019-05-14T15:52:22.833Z,1.07
2019-05-14T15:54:50.581Z,1.03
2019-05-14T15:57:19.224Z,0.53
2019-05-14T15:59:46.395Z,0.90
2019-05-14T16:02:13.442Z,1.10
2019-05-14T16:04:40.462Z,0.70
2019-05-14T16:07:09.493Z,1.20
2019-05-14T16:09:39.487Z,1.90
2019-05-14T16:12:05.325Z,0.60
2019-05-14T16:14:32.335Z,1.83
2019-05-14T16:16:59.236Z,1.40
2019-05-14T16:19:28.334Z,0.70
2019-05-14T16:21:55.011Z,1.03
2019-05-14T16:24:22.756Z,1.97
2019-05-14T16:26:49.730Z,0.80
2019-05-14T16:29:19.072Z,0.77
2019-05-14T16:31:45.451Z,0.80
2019-05-14T16:34:12.403Z,6.03
2019-05-14T16:36:41.251Z,0.93
2019-05-14T16:39:09.705Z,0.70
2019-05-14T16:41:38.948Z,0.50
2019-05-14T16:44:06.082Z,1.13
2019-05-14T16:46:33.213Z,0.60
2019-05-14T16:49:00.183Z,1.40
2019-05-14T16:51:27.082Z,1.30
2019-05-14T16:53:53.909Z,0.80
2019-05-14T16:56:20.916Z,1.37
2019-05-14T16:58:47.887Z,2.90
2019-05-14T17:01:14.800Z,1.47
2019-05-14T17:03:41.641Z,1.13
2019-05-14T17:06:08.578Z,0.90
2019-05-14T17:08:35.531Z,0.70
2019-05-14T17:11:02.641Z,2.03
2019-05-14T17:13:29.590Z,1.47
2019-05-14T17:15:58.745Z,2.70
2019-05-14T17:18:25.278Z,1.40
2019-05-14T17:20:52.083Z,1.57
2019-05-14T17:23:19.326Z,1.37
2019-05-14T17:25:48.370Z,0.90
2019-05-14T17:28:15.241Z,0.77
2019-05-14T17:30:42.278Z,0.60
2019-05-14T17:33:09.746Z,1.23
2019-05-14T17:35:38.996Z,1.07
2019-05-14T17:38:05.646Z,0.70
2019-05-14T17:40:32.563Z,2.47
2019-05-14T17:42:59.516Z,1.00
2019-05-14T17:45:28.422Z,2.03
2019-05-14T17:47:55.179Z,0.80
2019-05-14T17:50:22.120Z,1.90
2019-05-14T17:52:56.439Z,1.07
2019-05-14T17:55:18.789Z,1.47
2019-05-14T17:57:55.200Z,1.47
2019-05-14T18:00:14.934Z,0.60
2019-05-14T18:02:41.897Z,0.80
2019-05-14T18:05:09.672Z,1.40
2019-05-14T18:07:36.818Z,1.37
2019-05-14T18:10:04.240Z,1.53
2019-05-14T18:12:31.201Z,0.50
2019-05-14T18:14:58.889Z,0.70
2019-05-14T18:17:26.100Z,0.60
2019-05-14T18:19:53.026Z,0.90
2019-05-14T18:22:19.952Z,0.57
2019-05-14T18:24:48.707Z,1.57
2019-05-14T18:27:15.609Z,3.73
2019-05-14T18:29:42.508Z,1.60
2019-05-14T18:32:09.299Z,2.10
2019-05-14T18:34:36.125Z,1.53
2019-05-14T18:37:03.191Z,1.70
2019-05-14T18:39:30.087Z,1.20
2019-05-14T18:42:00.589Z,0.97
2019-05-14T18:44:28.258Z,0.93
2019-05-14T18:46:54.512Z,0.67
2019-05-14T18:49:21.415Z,0.80
2019-05-14T18:51:50.155Z,0.97
2019-05-14T18:54:17.089Z,1.60
2019-05-14T18:56:43.984Z,0.83
2019-05-14T18:59:10.787Z,1.07
2019-05-14T19:01:39.761Z,0.60
2019-05-14T19:04:08.259Z,0.80
2019-05-14T19:06:35.329Z,0.87
2019-05-14T19:09:04.439Z,1.57
2019-05-14T19:11:31.234Z,2.27
2019-05-14T19:13:58.070Z,0.77
2019-05-14T19:16:24.998Z,2.37
2019-05-14T19:18:51.823Z,0.80
2019-05-14T19:21:18.738Z,0.90
2019-05-14T19:23:45.596Z,0.93
2019-05-14T19:26:12.386Z,0.80
2019-05-14T19:28:39.189Z,1.37
2019-05-14T19:31:06.276Z,0.77
2019-05-14T19:33:33.068Z,1.80
2019-05-14T19:35:59.990Z,1.80
2019-05-14T19:38:26.927Z,1.27
2019-05-14T19:40:53.742Z,0.80
2019-05-14T19:43:20.525Z,1.23
2019-05-14T19:45:48.534Z,1.50
2019-05-14T19:48:15.685Z,1.77
2019-05-14T19:50:42.726Z,1.47
2019-05-14T19:53:09.662Z,2.70
2019-05-14T19:55:38.926Z,3.60
2019-05-14T19:58:05.358Z,1.37
2019-05-14T20:00:32.389Z,2.33
2019-05-14T20:02:59.294Z,1.23
2019-05-14T20:05:28.479Z,1.23
2019-05-14T20:07:54.922Z,1.20
2019-05-14T20:10:21.740Z,1.10
2019-05-14T20:12:48.654Z,1.30
2019-05-14T20:15:15.682Z,2.50
2019-05-14T20:17:42.574Z,1.17
2019-05-14T20:20:10.525Z,2.27
2019-05-14T20:22:39.345Z,1.23
2019-05-14T20:25:07.234Z,2.73
2019-05-14T20:27:34.215Z,1.30
2019-05-14T20:30:01.027Z,1.87
2019-05-14T20:32:27.874Z,1.47
2019-05-14T20:34:54.803Z,1.27
2019-05-14T20:37:21.576Z,3.27
2019-05-14T20:39:48.585Z,2.47
2019-05-14T20:42:15.453Z,1.30
2019-05-14T20:44:42.467Z,2.03
2019-05-14T20:47:09.524Z,1.93
2019-05-14T20:49:38.051Z,1.83
2019-05-14T20:52:05.193Z,2.13
2019-05-14T20:54:32.111Z,2.00
2019-05-14T20:56:58.997Z,3.33
2019-05-14T20:59:28.113Z,1.70
2019-05-14T21:01:54.589Z,2.30
2019-05-14T21:04:21.402Z,1.30
2019-05-14T21:06:48.715Z,1.50
2019-05-14T21:09:15.775Z,2.30
2019-05-14T21:11:42.561Z,3.27
2019-05-14T21:14:09.473Z,1.07
2019-05-14T21:16:38.952Z,3.33
2019-05-14T21:19:05.090Z,1.30
2019-05-14T21:21:31.875Z,3.37
2019-05-14T21:23:58.846Z,1.10
2019-05-14T21:26:25.828Z,1.73
2019-05-14T21:28:52.620Z,1.10
2019-05-14T21:31:19.578Z,1.63
2019-05-14T21:33:46.409Z,2.13
2019-05-14T21:36:13.301Z,2.23
2019-05-14T21:38:41.123Z,1.17
2019-05-14T21:41:08.172Z,2.90
2019-05-14T21:43:34.969Z,1.57
2019-05-14T21:46:02.006Z,2.37
2019-05-14T21:48:28.960Z,2.80
2019-05-14T21:50:56.004Z,1.47
2019-05-14T21:53:23.038Z,2.60
2019-05-14T21:55:49.963Z,1.30
2019-05-14T21:58:19.556Z,1.40
2019-05-14T22:00:49.161Z,5.20
2019-05-14T22:03:20.504Z,2.00
2019-05-14T22:05:45.322Z,1.40
2019-05-14T22:08:12.223Z,1.27
2019-05-14T22:10:40.088Z,1.67
2019-05-14T22:13:07.238Z,2.10
2019-05-14T22:15:34.145Z,2.00
2019-05-14T22:18:00.978Z,3.10
2019-05-14T22:20:28.976Z,1.43
2019-05-14T22:22:56.071Z,1.70
2019-05-14T22:25:22.912Z,1.60
2019-05-14T22:27:49.810Z,1.00
2019-05-14T22:30:18.190Z,1.83
2019-05-14T22:32:45.466Z,1.57
2019-05-14T22:35:12.673Z,2.67
2019-05-14T22:37:39.470Z,1.30
2019-05-14T22:40:06.930Z,2.03
2019-05-14T22:42:33.843Z,1.70
2019-05-14T22:45:00.969Z,2.67
2019-05-14T22:47:27.888Z,2.07
2019-05-14T22:49:54.690Z,3.10
2019-05-14T22:52:21.546Z,3.13
2019-05-14T22:54:49.056Z,1.97
2019-05-14T22:57:16.286Z,1.97
2019-05-14T22:59:43.135Z,4.03
2019-05-14T23:02:11.360Z,1.80
2019-05-14T23:04:39.066Z,2.13
2019-05-14T23:07:08.085Z,1.90
2019-05-14T23:09:34.560Z,1.50
2019-05-14T23:12:01.610Z,1.67
2019-05-14T23:14:28.419Z,1.50
2019-05-14T23:16:55.229Z,2.10
2019-05-14T23:19:22.054Z,1.63
2019-05-14T23:21:48.857Z,2.93
2019-05-14T23:24:15.768Z,2.37
2019-05-14T23:26:42.601Z,3.40
2019-05-14T23:29:09.401Z,1.90
2019-05-14T23:31:38.382Z,3.67
2019-05-14T23:34:05.057Z,2.67
2019-05-14T23:36:32.086Z,3.20
2019-05-14T23:38:59.387Z,1.57
2019-05-14T23:41:28.541Z,2.23
2019-05-14T23:43:55.302Z,1.70
2019-05-14T23:46:22.302Z,1.80
2019-05-14T23:48:49.233Z,2.13
2019-05-14T23:51:18.068Z,1.90
2019-05-14T23:53:44.766Z,1.33
2019-05-14T23:56:11.700Z,1.37
2019-05-14T23:58:38.472Z,2.67
